Time;durP1;ratioP1;P1;durP2;ratioP2;P2;SDS_P1;SDS_P2;PMS_P1;PMS_P2;Temp;Humidity;BMP_temperature;BMP_pressure;BME280_temperature;BME280_humidity;BME280_pressure;Samples;Min_cycle;Max_cycle;Signal;HPM_P1;HPM_P2
2022/12/17 13:06:29;;;;;;;25.45;16.75;;;;;;;;;;5000290;28;20082;-77
2022/12/17 13:09:24;;;;;;;35.85;20.20;;;;;;;;;;4981990;28;20448;-77
2022/12/17 13:11:59;;;;;;;25.02;17.10;;;;;;;;;;4979299;28;20110;-78
2022/12/17 13:14:35;;;;;;;33.55;19.98;;;;;;;;;;4960280;28;20391;-77
2022/12/17 13:17:26;;;;;;;25.80;17.33;;;;;;;;;;4970297;28;20039;-77
2022/12/17 13:19:55;;;;;;;28.45;15.85;;;;;;;;;;4970405;28;20042;-77
2022/12/17 13:22:20;;;;;;;41.60;17.80;;;;;;;;;;4979411;28;20405;-78
2022/12/17 13:24:48;;;;;;;33.38;17.33;;;;;;;;;;4975733;28;20046;-77
2022/12/17 13:27:35;;;;;;;8.30;7.63;;;;;;;;;;4981516;28;20398;-78
2022/12/17 13:30:34;;;;;;;23.83;17.00;;;;;;;;;;4979880;28;20039;-77
2022/12/17 13:33:21;;;;;;;16.83;13.00;;;;;;;;;;4963420;28;20048;-76
2022/12/17 13:36:07;;;;;;;23.50;17.58;;;;;;;;;;4945539;28;20125;-77
2022/12/17 13:39:23;;;;;;;21.15;14.35;;;;;;;;;;4979666;28;20070;-76
2022/12/17 13:41:53;;;;;;;47.60;23.88;;;;;;;;;;4945761;28;20053;-77
2022/12/17 13:44:21;;;;;;;;;;;;;;;;;;4946332;28;20046;-77
2022/12/17 13:46:49;;;;;;;32.95;21.73;;;;;;;;;;4931266;28;19925;-76
2022/12/17 13:49:27;;;;;;;17.92;12.45;;;;;;;;;;4966199;28;20440;-77
2022/12/17 13:52:00;;;;;;;19.73;13.93;;;;;;;;;;4958837;28;20402;-77
2022/12/17 13:54:25;;;;;;;28.60;18.40;;;;;;;;;;4981308;28;20445;-77
2022/12/17 13:56:52;;;;;;;22.58;14.63;;;;;;;;;;4963579;28;20280;-77
2022/12/17 13:59:20;;;;;;;30.05;20.13;;;;;;;;;;4974454;28;20042;-77
2022/12/17 14:01:48;;;;;;;28.42;18.48;;;;;;;;;;4962369;28;20042;-76
2022/12/17 14:04:24;;;;;;;37.87;21.07;;;;;;;;;;4982476;28;20038;-77
2022/12/17 14:06:58;;;;;;;28.25;16.60;;;;;;;;;;4968285;28;20082;-76
2022/12/17 14:09:32;;;;;;;52.38;24.83;;;;;;;;;;4979836;28;20138;-77
2022/12/17 14:12:21;;;;;;;36.47;21.70;;;;;;;;;;4978617;28;20046;-77
2022/12/17 14:14:56;;;;;;;32.53;19.42;;;;;;;;;;4972360;28;20042;-77
2022/12/17 14:17:24;;;;;;;32.38;21.02;;;;;;;;;;4972357;28;20090;-77
2022/12/17 14:19:58;;;;;;;25.05;16.75;;;;;;;;;;4978685;28;20631;-76
2022/12/17 14:23:05;;;;;;;32.53;19.45;;;;;;;;;;4991352;28;20042;-77
2022/12/17 14:25:37;;;;;;;32.90;21.55;;;;;;;;;;4972176;28;20053;-77
2022/12/17 14:28:35;;;;;;;33.65;21.67;;;;;;;;;;4985326;28;20042;-76
2022/12/17 14:31:13;;;;;;;29.92;17.55;;;;;;;;;;4980074;28;20119;-78
2022/12/17 14:33:39;;;;;;;35.00;21.35;;;;;;;;;;4985817;28;20088;-78
2022/12/17 14:36:07;;;;;;;39.40;19.88;;;;;;;;;;4980041;28;20196;-77
2022/12/17 14:38:34;;;;;;;30.08;18.60;;;;;;;;;;4972397;28;20043;-77
2022/12/17 14:42:24;;;;;;;26.77;16.48;;;;;;;;;;4978374;28;20047;-77
2022/12/17 14:43:54;;;;;;;28.55;18.80;;;;;;;;;;4985364;28;20096;-77
2022/12/17 14:46:21;;;;;;;38.47;20.42;;;;;;;;;;4978267;28;20107;-74
2022/12/17 14:48:59;;;;;;;35.15;20.60;;;;;;;;;;4977825;28;20034;-77
2022/12/17 14:51:31;;;;;;;36.88;21.05;;;;;;;;;;4971066;28;20034;-76
2022/12/17 14:54:27;;;;;;;40.78;19.73;;;;;;;;;;4976630;28;20030;-75
2022/12/17 14:56:54;;;;;;;48.10;24.00;;;;;;;;;;4979514;28;20038;-75
2022/12/17 14:59:26;;;;;;;33.28;18.67;;;;;;;;;;4983182;28;20386;-78
2022/12/17 15:01:53;;;;;;;30.52;16.33;;;;;;;;;;4967607;28;20453;-76
2022/12/17 15:04:19;;;;;;;14.52;12.88;;;;;;;;;;4976188;28;20034;-77
2022/12/17 15:06:44;;;;;;;22.75;15.23;;;;;;;;;;4974728;28;20039;-77
2022/12/17 15:09:11;;;;;;;25.13;18.95;;;;;;;;;;4981580;28;20034;-77
2022/12/17 15:11:38;;;;;;;29.58;18.02;;;;;;;;;;4963633;28;20046;-77
2022/12/17 15:14:04;;;;;;;22.50;14.73;;;;;;;;;;4980311;28;20038;-77
2022/12/17 15:16:30;;;;;;;39.75;22.80;;;;;;;;;;4976250;28;20054;-77
2022/12/17 15:18:56;;;;;;;34.97;19.95;;;;;;;;;;4974851;28;20492;-77
2022/12/17 15:21:23;;;;;;;34.13;20.05;;;;;;;;;;4981459;28;20041;-77
2022/12/17 15:23:49;;;;;;;41.42;21.05;;;;;;;;;;4961296;28;20098;-77
2022/12/17 15:26:16;;;;;;;31.85;20.40;;;;;;;;;;4976860;28;20033;-77
2022/12/17 15:28:42;;;;;;;36.78;20.15;;;;;;;;;;4980862;28;20042;-77
2022/12/17 15:31:12;;;;;;;47.08;24.60;;;;;;;;;;4980289;28;20398;-78
2022/12/17 15:33:38;;;;;;;29.67;17.73;;;;;;;;;;4978330;28;20398;-77
2022/12/17 15:36:04;;;;;;;37.70;22.17;;;;;;;;;;4986337;28;20069;-78
2022/12/17 15:38:30;;;;;;;38.97;14.45;;;;;;;;;;4983582;28;20046;-77
2022/12/17 15:40:59;;;;;;;46.03;19.48;;;;;;;;;;4963393;28;20453;-78
2022/12/17 15:43:24;;;;;;;26.48;13.95;;;;;;;;;;4979178;28;20030;-76
2022/12/17 15:45:52;;;;;;;13.93;9.50;;;;;;;;;;4977753;28;20045;-77
2022/12/17 15:48:22;;;;;;;13.02;11.73;;;;;;;;;;4964073;28;20042;-77
2022/12/17 15:50:48;;;;;;;25.20;15.82;;;;;;;;;;4981690;28;20149;-77
2022/12/17 15:53:14;;;;;;;12.32;10.40;;;;;;;;;;4971636;28;20034;-77
2022/12/17 15:55:40;;;;;;;47.97;24.35;;;;;;;;;;4977412;28;20485;-78
2022/12/17 15:58:06;;;;;;;23.27;16.10;;;;;;;;;;4975898;28;20038;-75
2022/12/17 16:00:32;;;;;;;35.00;16.45;;;;;;;;;;4955479;28;20117;-77
2022/12/17 16:02:58;;;;;;;20.80;17.30;;;;;;;;;;4980395;28;20121;-77
2022/12/17 16:05:23;;;;;;;47.50;21.35;;;;;;;;;;4980506;28;20057;-75
2022/12/17 16:07:50;;;;;;;43.42;21.67;;;;;;;;;;4978193;28;20044;-77
2022/12/17 16:10:16;;;;;;;22.17;15.68;;;;;;;;;;4957194;28;20456;-77
2022/12/17 16:12:42;;;;;;;48.08;21.15;;;;;;;;;;4981747;28;20059;-77
2022/12/17 16:15:08;;;;;;;44.05;19.85;;;;;;;;;;4977391;28;20052;-77
2022/12/17 16:17:35;;;;;;;18.75;14.13;;;;;;;;;;4976911;28;20228;-76
2022/12/17 16:20:00;;;;;;;25.20;15.85;;;;;;;;;;4976376;28;20121;-77
2022/12/17 16:22:27;;;;;;;28.77;19.17;;;;;;;;;;4978692;28;20134;-77
2022/12/17 16:24:53;;;;;;;33.22;16.33;;;;;;;;;;4981152;28;20108;-76
2022/12/17 16:27:18;;;;;;;48.88;19.95;;;;;;;;;;4972904;28;20042;-77
2022/12/17 16:29:48;;;;;;;54.72;22.15;;;;;;;;;;4961415;28;20066;-77
2022/12/17 16:32:16;;;;;;;27.05;17.25;;;;;;;;;;4978875;28;20039;-76
2022/12/17 16:34:43;;;;;;;41.65;20.58;;;;;;;;;;4975124;28;20398;-77
2022/12/17 16:37:08;;;;;;;22.08;15.38;;;;;;;;;;4982243;28;20092;-76
2022/12/17 16:39:34;;;;;;;56.15;24.05;;;;;;;;;;4950196;28;20038;-77
2022/12/17 16:42:02;;;;;;;21.45;14.93;;;;;;;;;;4977524;28;20031;-77
2022/12/17 16:44:28;;;;;;;35.10;20.65;;;;;;;;;;4978719;28;20034;-77
2022/12/17 16:46:54;;;;;;;33.75;19.17;;;;;;;;;;4974740;28;20034;-76
2022/12/17 16:49:24;;;;;;;50.30;24.08;;;;;;;;;;4992984;28;20037;-77
2022/12/17 16:51:51;;;;;;;38.13;21.05;;;;;;;;;;4965794;28;20407;-76
2022/12/17 16:54:20;;;;;;;19.55;14.73;;;;;;;;;;4974438;28;20109;-77
2022/12/17 16:56:46;;;;;;;83.55;17.52;;;;;;;;;;4979316;28;20272;-76
2022/12/17 16:59:13;;;;;;;18.48;12.60;;;;;;;;;;4974066;28;20038;-76
2022/12/17 17:01:41;;;;;;;47.33;23.13;;;;;;;;;;4976581;28;20045;-76
2022/12/17 17:04:08;;;;;;;57.47;22.70;;;;;;;;;;4975544;28;20141;-75
2022/12/17 17:06:38;;;;;;;35.78;18.02;;;;;;;;;;4976624;28;20086;-75
2022/12/17 17:09:04;;;;;;;16.55;14.25;;;;;;;;;;4994069;28;20128;-75
2022/12/17 17:11:30;;;;;;;84.47;29.75;;;;;;;;;;4976374;28;20070;-76
2022/12/17 17:13:56;;;;;;;32.35;16.90;;;;;;;;;;4974746;28;20045;-75
2022/12/17 17:16:23;;;;;;;19.13;11.48;;;;;;;;;;4977187;28;20046;-76
2022/12/17 17:18:49;;;;;;;21.42;13.18;;;;;;;;;;4973397;28;20026;-75
2022/12/17 17:21:23;;;;;;;22.00;15.63;;;;;;;;;;4967432;28;20038;-75
2022/12/17 17:23:55;;;;;;;28.65;16.13;;;;;;;;;;4979908;28;20038;-76
2022/12/17 17:26:20;;;;;;;27.48;20.05;;;;;;;;;;4982549;28;20068;-75
2022/12/17 17:28:47;;;;;;;75.88;27.83;;;;;;;;;;4980840;28;20702;-75
2022/12/17 17:31:14;;;;;;;33.83;18.35;;;;;;;;;;4985588;28;20049;-76
2022/12/17 17:33:42;;;;;;;88.07;23.92;;;;;;;;;;4981388;28;20486;-75
2022/12/17 17:36:14;;;;;;;35.97;20.95;;;;;;;;;;4975124;28;20038;-76
2022/12/17 17:38:40;;;;;;;39.42;20.48;;;;;;;;;;4979819;28;20049;-75
2022/12/17 17:41:08;;;;;;;15.32;13.77;;;;;;;;;;4980748;28;20027;-77
2022/12/17 17:43:34;;;;;;;9.82;8.95;;;;;;;;;;4982354;28;20655;-77
2022/12/17 17:46:08;;;;;;;60.65;20.27;;;;;;;;;;4975317;28;20153;-75
2022/12/17 17:48:34;;;;;;;77.15;24.05;;;;;;;;;;4980808;28;20046;-76
2022/12/17 17:51:03;;;;;;;41.30;16.70;;;;;;;;;;4983424;28;20714;-77
2022/12/17 17:53:30;;;;;;;58.30;19.80;;;;;;;;;;4985312;28;20026;-77
2022/12/17 17:56:02;;;;;;;20.75;13.52;;;;;;;;;;4981427;28;20026;-76
2022/12/17 17:58:28;;;;;;;21.77;14.35;;;;;;;;;;4983559;28;20042;-77
2022/12/17 18:00:54;;;;;;;40.13;20.50;;;;;;;;;;4965543;28;20063;-76
2022/12/17 18:03:19;;;;;;;67.70;26.88;;;;;;;;;;4975391;28;20061;-76
2022/12/17 18:05:45;;;;;;;29.05;19.15;;;;;;;;;;4983370;28;20030;-76
2022/12/17 18:08:10;;;;;;;38.13;13.32;;;;;;;;;;4979571;28;20031;-76
2022/12/17 18:10:36;;;;;;;21.48;13.80;;;;;;;;;;4984013;28;20038;-75
2022/12/17 18:15:46;;;;;;;15.25;12.32;;;;;;;;;;4982390;28;20047;-76
2022/12/17 18:18:13;;;;;;;52.80;21.70;;;;;;;;;;4976553;28;20034;-77
2022/12/17 18:20:38;;;;;;;30.77;15.02;;;;;;;;;;4982922;28;20038;-76
2022/12/17 18:23:04;;;;;;;23.42;14.63;;;;;;;;;;4985985;28;20058;-77
2022/12/17 18:25:29;;;;;;;12.73;10.32;;;;;;;;;;4981279;28;20069;-76
2022/12/17 18:27:55;;;;;;;60.92;24.60;;;;;;;;;;4986783;28;20488;-77
2022/12/17 18:30:21;;;;;;;7.65;7.05;;;;;;;;;;4980253;28;20042;-76
2022/12/17 18:32:47;;;;;;;34.65;14.98;;;;;;;;;;4980935;28;20046;-76
2022/12/17 18:35:13;;;;;;;94.60;20.70;;;;;;;;;;4986001;28;20053;-77
2022/12/17 18:37:40;;;;;;;56.38;23.75;;;;;;;;;;4988192;28;20039;-76
2022/12/17 18:40:06;;;;;;;76.53;21.98;;;;;;;;;;4981754;28;20030;-76
2022/12/17 18:45:16;;;;;;;75.13;20.73;;;;;;;;;;4981523;28;20036;-77
2022/12/17 18:47:43;;;;;;;14.75;11.43;;;;;;;;;;4983967;28;20033;-77
2022/12/17 18:50:11;;;;;;;44.58;25.10;;;;;;;;;;4985978;28;20043;-76
2022/12/17 18:52:37;;;;;;;36.15;16.67;;;;;;;;;;4986244;28;20053;-77
2022/12/17 18:55:03;;;;;;;19.90;10.82;;;;;;;;;;4984763;28;20085;-77
2022/12/17 18:57:29;;;;;;;99.60;25.15;;;;;;;;;;4974374;28;20038;-76
2022/12/17 18:59:55;;;;;;;44.30;19.48;;;;;;;;;;4984296;28;20080;-77
2022/12/17 19:02:21;;;;;;;37.92;21.52;;;;;;;;;;4979258;28;20450;-77
2022/12/17 19:04:47;;;;;;;13.25;12.00;;;;;;;;;;4985194;28;20042;-77
2022/12/17 19:07:13;;;;;;;24.90;17.23;;;;;;;;;;4981420;28;20093;-76
2022/12/17 19:09:39;;;;;;;41.72;21.40;;;;;;;;;;4981416;28;20356;-76
2022/12/17 19:12:07;;;;;;;42.72;20.27;;;;;;;;;;4983230;28;20026;-76
2022/12/17 19:14:33;;;;;;;48.30;26.10;;;;;;;;;;4980245;28;20034;-76
2022/12/17 19:16:59;;;;;;;53.83;22.15;;;;;;;;;;4972207;28;20073;-77
2022/12/17 19:19:25;;;;;;;37.80;21.42;;;;;;;;;;4970260;28;20039;-75
2022/12/17 19:21:53;;;;;;;47.03;22.88;;;;;;;;;;4971752;28;20077;-75
2022/12/17 19:24:20;;;;;;;27.15;18.35;;;;;;;;;;4978199;28;20034;-75
2022/12/17 19:26:45;;;;;;;62.22;27.92;;;;;;;;;;4970840;28;20035;-77
2022/12/17 19:29:13;;;;;;;39.93;18.23;;;;;;;;;;4975392;28;20131;-76
2022/12/17 19:31:39;;;;;;;61.83;27.30;;;;;;;;;;4980691;28;20042;-75
2022/12/17 19:34:09;;;;;;;31.35;18.40;;;;;;;;;;4977357;28;20034;-77
2022/12/17 19:36:36;;;;;;;28.95;19.77;;;;;;;;;;4973782;28;20034;-76
2022/12/17 19:39:05;;;;;;;32.38;21.25;;;;;;;;;;4981205;28;20062;-75
2022/12/17 19:41:31;;;;;;;;;;;;;;;;;;4980195;28;20041;-76
2022/12/17 19:43:59;;;;;;;23.90;15.60;;;;;;;;;;4972649;28;19917;-76
2022/12/17 19:46:25;;;;;;;42.45;22.92;;;;;;;;;;4980443;28;20086;-75
2022/12/17 19:48:51;;;;;;;43.65;22.58;;;;;;;;;;4978091;28;20526;-75
2022/12/17 19:51:21;;;;;;;31.27;20.00;;;;;;;;;;4977941;28;20116;-78
2022/12/17 19:53:47;;;;;;;69.05;20.63;;;;;;;;;;4974647;28;20097;-78
2022/12/17 19:56:21;;;;;;;78.32;29.88;;;;;;;;;;4982567;28;20046;-78
2022/12/17 19:58:51;;;;;;;52.65;24.23;;;;;;;;;;4981470;28;20052;-76
2022/12/17 20:01:23;;;;;;;37.00;18.63;;;;;;;;;;4975996;28;20035;-76
2022/12/17 20:03:49;;;;;;;48.25;24.33;;;;;;;;;;4979115;28;20046;-76
2022/12/17 20:06:24;;;;;;;37.38;22.20;;;;;;;;;;5058755;28;21248;-67
2022/12/17 20:08:50;;;;;;;39.53;22.77;;;;;;;;;;5055834;28;20036;-66
2022/12/17 20:11:32;;;;;;;40.60;22.42;;;;;;;;;;5055262;28;20302;-66
2022/12/17 20:14:07;;;;;;;48.53;23.35;;;;;;;;;;5036139;28;20090;-67
2022/12/17 20:16:38;;;;;;;47.42;21.52;;;;;;;;;;5036787;28;20041;-67
2022/12/17 20:19:06;;;;;;;48.53;24.00;;;;;;;;;;5031528;28;20536;-66
2022/12/17 20:21:32;;;;;;;45.05;22.75;;;;;;;;;;5034911;28;20040;-67
2022/12/17 20:23:57;;;;;;;39.28;22.30;;;;;;;;;;5037141;28;20380;-67
2022/12/17 20:26:24;;;;;;;22.80;16.38;;;;;;;;;;5035983;28;20244;-66
2022/12/17 20:28:49;;;;;;;33.78;17.00;;;;;;;;;;5034876;28;20823;-66
2022/12/17 20:31:15;;;;;;;16.02;9.93;;;;;;;;;;5036127;28;20041;-67
2022/12/17 20:33:41;;;;;;;56.13;22.05;;;;;;;;;;5036248;28;20102;-67
2022/12/17 20:36:12;;;;;;;39.65;20.50;;;;;;;;;;5035886;28;20037;-67
2022/12/17 20:38:38;;;;;;;56.22;17.88;;;;;;;;;;5036116;28;20033;-67
2022/12/17 20:41:12;;;;;;;16.73;11.48;;;;;;;;;;5039337;28;20056;-66
2022/12/17 20:43:39;;;;;;;38.83;23.00;;;;;;;;;;5034311;28;20033;-67
2022/12/17 20:46:05;;;;;;;30.83;14.32;;;;;;;;;;5035861;28;20424;-67
2022/12/17 20:48:31;;;;;;;71.78;19.38;;;;;;;;;;5037047;28;20091;-68
2022/12/17 20:50:57;;;;;;;55.53;25.35;;;;;;;;;;5037765;28;20507;-68
2022/12/17 20:53:23;;;;;;;38.35;22.40;;;;;;;;;;5037244;28;20033;-68
2022/12/17 20:56:04;;;;;;;20.35;13.50;;;;;;;;;;5035632;28;20028;-68
2022/12/17 20:58:30;;;;;;;36.08;18.38;;;;;;;;;;5035042;28;20144;-68
2022/12/17 21:01:22;;;;;;;38.28;19.00;;;;;;;;;;5036751;28;20029;-67
2022/12/17 21:03:50;;;;;;;65.30;28.17;;;;;;;;;;5035950;28;20040;-67
2022/12/17 21:06:24;;;;;;;45.50;22.08;;;;;;;;;;5037750;28;20036;-68
2022/12/17 21:08:52;;;;;;;48.95;24.73;;;;;;;;;;5034340;28;20102;-68
2022/12/17 21:11:19;;;;;;;91.10;25.65;;;;;;;;;;5037424;28;20044;-67
2022/12/17 21:13:45;;;;;;;21.55;13.35;;;;;;;;;;5038266;28;20035;-67
2022/12/17 21:16:16;;;;;;;30.00;15.75;;;;;;;;;;5034211;28;20041;-67
2022/12/17 21:18:42;;;;;;;34.60;19.58;;;;;;;;;;5021574;28;20037;-67
2022/12/17 21:21:11;;;;;;;37.10;21.77;;;;;;;;;;5022969;28;20041;-68
2022/12/17 21:23:38;;;;;;;14.55;13.00;;;;;;;;;;5023958;28;20041;-68
2022/12/17 21:26:24;;;;;;;26.25;17.13;;;;;;;;;;5022250;28;20042;-67
2022/12/17 21:28:52;;;;;;;36.78;13.30;;;;;;;;;;5020794;28;20036;-68
2022/12/17 21:31:19;;;;;;;27.40;15.48;;;;;;;;;;5023260;28;20144;-68
2022/12/17 21:33:48;;;;;;;12.80;11.05;;;;;;;;;;5022453;28;20037;-68
2022/12/17 21:36:16;;;;;;;40.88;20.45;;;;;;;;;;5020604;28;20389;-68
2022/12/17 21:38:42;;;;;;;49.50;23.73;;;;;;;;;;5021566;28;20037;-68
2022/12/17 21:41:10;;;;;;;44.63;21.23;;;;;;;;;;5023021;28;20062;-68
2022/12/17 21:43:37;;;;;;;27.55;17.98;;;;;;;;;;5021464;28;20037;-68
2022/12/17 21:46:03;;;;;;;51.95;24.23;;;;;;;;;;5021675;28;20029;-67
2022/12/17 21:48:29;;;;;;;23.33;15.15;;;;;;;;;;5021145;28;20141;-68
2022/12/17 21:50:55;;;;;;;33.28;18.80;;;;;;;;;;5022277;28;20045;-68
2022/12/17 21:53:21;;;;;;;17.38;14.90;;;;;;;;;;5020179;28;20040;-68
2022/12/17 21:55:47;;;;;;;29.77;17.85;;;;;;;;;;5022559;28;20528;-68
2022/12/17 21:58:14;;;;;;;58.58;22.70;;;;;;;;;;5021716;28;20694;-66
2022/12/17 22:00:40;;;;;;;37.92;19.15;;;;;;;;;;5019559;28;20052;-66
2022/12/17 22:03:06;;;;;;;42.88;24.02;;;;;;;;;;5021030;28;20045;-66
2022/12/17 22:05:35;;;;;;;45.25;18.95;;;;;;;;;;5025264;28;20037;-66
2022/12/17 22:08:00;;;;;;;36.60;20.73;;;;;;;;;;5019803;28;20051;-66
2022/12/17 22:10:26;;;;;;;45.97;24.70;;;;;;;;;;5019862;28;20041;-66
2022/12/17 22:15:38;;;;;;;24.08;17.95;;;;;;;;;;5023037;28;20064;-66
2022/12/17 22:18:03;;;;;;;45.47;22.75;;;;;;;;;;5018680;28;20056;-66
2022/12/17 22:20:29;;;;;;;41.58;19.27;;;;;;;;;;5021060;28;20077;-67
2022/12/17 22:22:55;;;;;;;42.00;20.05;;;;;;;;;;5024152;28;20048;-66
2022/12/17 22:25:20;;;;;;;57.55;23.38;;;;;;;;;;5024737;28;20029;-67
2022/12/17 22:27:46;;;;;;;50.75;26.50;;;;;;;;;;5018472;28;20034;-66
2022/12/17 22:32:59;;;;;;;32.15;19.05;;;;;;;;;;5011586;28;20037;-65
2022/12/17 22:35:34;;;;;;;30.60;22.25;;;;;;;;;;5021113;28;20029;-66
2022/12/17 22:38:00;;;;;;;33.25;21.48;;;;;;;;;;5020228;28;20041;-66
2022/12/17 22:40:26;;;;;;;31.73;20.20;;;;;;;;;;5024570;28;20042;-66
2022/12/17 22:45:38;;;;;;;41.53;21.92;;;;;;;;;;5021769;28;20575;-66
2022/12/17 22:48:05;;;;;;;31.98;19.73;;;;;;;;;;5023703;28;20035;-66
2022/12/17 22:50:30;;;;;;;31.95;20.48;;;;;;;;;;5021702;28;20386;-66
2022/12/17 22:52:56;;;;;;;40.13;21.70;;;;;;;;;;5020145;28;20108;-66
2022/12/17 22:55:21;;;;;;;45.45;20.38;;;;;;;;;;5019385;28;20615;-66
2022/12/17 22:57:47;;;;;;;43.55;23.63;;;;;;;;;;5015960;28;20087;-66
2022/12/17 23:00:15;;;;;;;41.25;23.25;;;;;;;;;;5023829;28;20052;-66
2022/12/17 23:02:41;;;;;;;29.40;17.42;;;;;;;;;;5024656;28;20037;-66
2022/12/17 23:05:07;;;;;;;33.78;15.80;;;;;;;;;;5022499;28;20083;-67
2022/12/17 23:07:33;;;;;;;12.52;8.98;;;;;;;;;;5024724;28;20095;-66
2022/12/17 23:09:59;;;;;;;41.28;20.85;;;;;;;;;;5023062;28;20562;-66
2022/12/17 23:15:09;;;;;;;19.17;17.08;;;;;;;;;;5021115;28;20033;-67
2022/12/17 23:17:34;;;;;;;8.60;7.25;;;;;;;;;;5023520;28;20052;-67
2022/12/17 23:20:00;;;;;;;29.38;19.02;;;;;;;;;;5024610;28;20400;-66
2022/12/17 23:22:25;;;;;;;61.42;27.00;;;;;;;;;;5021161;28;20473;-66
2022/12/17 23:24:51;;;;;;;50.50;24.23;;;;;;;;;;5024992;28;20526;-66
2022/12/17 23:27:16;;;;;;;28.45;18.08;;;;;;;;;;5023056;28;20637;-66
2022/12/17 23:29:42;;;;;;;27.27;16.52;;;;;;;;;;5022306;28;20493;-66
2022/12/17 23:32:07;;;;;;;48.75;23.08;;;;;;;;;;5014671;28;20120;-66
2022/12/17 23:34:33;;;;;;;55.42;27.95;;;;;;;;;;5022338;28;20037;-65
2022/12/17 23:36:59;;;;;;;50.45;23.63;;;;;;;;;;5016788;28;20397;-66
2022/12/17 23:39:24;;;;;;;20.08;13.50;;;;;;;;;;5019570;28;20702;-66
2022/12/17 23:41:53;;;;;;;29.42;16.23;;;;;;;;;;5024824;28;20092;-66
2022/12/17 23:44:18;;;;;;;10.17;9.13;;;;;;;;;;5026700;28;20658;-66
2022/12/17 23:46:44;;;;;;;23.38;18.50;;;;;;;;;;5027644;28;20048;-66
2022/12/17 23:49:09;;;;;;;37.08;17.88;;;;;;;;;;5025597;28;20064;-66
2022/12/17 23:51:36;;;;;;;22.55;16.35;;;;;;;;;;5024112;28;20044;-66
2022/12/17 23:54:01;;;;;;;36.22;18.05;;;;;;;;;;5027032;28;20033;-66
2022/12/17 23:56:27;;;;;;;65.32;23.85;;;;;;;;;;5028004;28;20033;-66
2022/12/17 23:58:56;;;;;;;45.63;19.70;;;;;;;;;;5025140;28;20052;-66
